Hurghada, Egypt

2:56 AM EET on August 29, 2016 (GMT +0200)
Hurghada International | | Change Station

Elev 46 ft 27.18 °N, 33.80 °E | Updated 56 minutes ago

Clear
Clear
84 °F
Feels Like 86 °F
N
18
Wind Variable Wind from NNW

Today
High -- | Low -- °F
--% Chance of Precip.
Yesterday
High -- | Low -- °F
Precip. -- in
Pressure 29.74 in
Visibility -9999.0 miles
Clouds
Heat Index 86 °F
Dew Point 64 °F
Humidity 51%
Rainfall 0.00 in
Snow Depth Not available.
5:23 AM 6:08 PM
Waning Crescent, 12% visible
METAR HEGN 290000Z 33016KT CAVOK 29/18 Q1007 NOSIG
Pressure 29.74 in
Visibility -9999.0 miles
Clouds
Heat Index 86 °F
Dew Point 64 °F
Humidity 51%
Rainfall 0.00 in
Snow Depth Not available.
5:23 AM 6:08 PM
Waning Crescent, 12% visible
METAR HEGN 290000Z 33016KT CAVOK 29/18 Q1007 NOSIG

10-Day Weather Forecast

No radar image for this location.
×

Almanac

Astronomy

Aug. 29, 2016 Rise Set
Actual Time
Civil Twilight
Nautical Twilight
Astronomical Twilight
Moon
Length of Visible Light
Length of Day
Tomorrow will be .
, % of the Moon is Illuminated

Today's Extremes

Country Highs Country Lows

Community

WunderPhotos

Upload Photos

1,935,749 photos uploaded!

WunderBlog® & News

Nearby

Air Quality

  Air Quality AQ Index Pollutant
Not available.

Snow Depth

Station Depth Elevation

Earthquake Activity

City Distance Mag. Time & Date
Minimum magnitude displayed is 2.5.

Coastal Water Temperatures

Place Temperature

Stations

Nearby Weather Stations

Station Location Temp. Windchill Dew Point Humidity Wind Precip. Elev Updated Type